Time;durP1;ratioP1;P1;durP2;ratioP2;P2;SDS_P1;SDS_P2;PMS_P1;PMS_P2;Temp;Humidity;BMP_temperature;BMP_pressure;BME280_temperature;BME280_humidity;BME280_pressure;Samples;Min_cycle;Max_cycle;Signal;HPM_P1;HPM_P2
2023/10/22 00:02:02;;;;;;;0.32;0.20;;;20.10;79.40;;;;;;4938540;28;44607;-70
2023/10/22 00:04:31;;;;;;;1.08;0.32;;;20.10;79.40;;;;;;4931354;28;44720;-70
2023/10/22 00:07:01;;;;;;;1.23;0.60;;;20.10;79.40;;;;;;4942995;28;44727;-70
2023/10/22 00:09:30;;;;;;;1.10;0.40;;;20.10;79.60;;;;;;4932461;28;46312;-70
2023/10/22 00:11:58;;;;;;;0.65;0.28;;;20.10;79.50;;;;;;4912792;28;45129;-70
2023/10/22 00:14:47;;;;;;;0.90;0.43;;;20.10;79.40;;;;;;4922047;28;44929;-70
2023/10/22 00:17:24;;;;;;;0.55;0.30;;;20.10;79.50;;;;;;4924971;28;44785;-70
2023/10/22 00:20:03;;;;;;;0.85;0.30;;;20.10;79.50;;;;;;4923377;28;46401;-69
2023/10/22 00:22:43;;;;;;;0.70;0.20;;;20.10;79.60;;;;;;4915830;28;44766;-70
2023/10/22 00:25:12;;;;;;;1.77;0.38;;;20.10;79.40;;;;;;4920696;28;44711;-70
2023/10/22 00:27:49;;;;;;;1.10;0.47;;;20.10;79.40;;;;;;4921661;28;44850;-70
2023/10/22 00:30:17;;;;;;;2.00;0.20;;;20.10;79.40;;;;;;4908767;28;46118;-70
2023/10/22 00:32:53;;;;;;;0.75;0.20;;;20.10;79.60;;;;;;4920201;28;44756;-70
2023/10/22 00:35:32;;;;;;;1.65;0.38;;;20.10;79.40;;;;;;4919785;28;44689;-70
2023/10/22 00:38:01;;;;;;;0.70;0.43;;;20.10;79.30;;;;;;4890200;28;44932;-70
2023/10/22 00:40:28;;;;;;;1.15;0.47;;;20.10;79.40;;;;;;4916639;28;46173;-69
2023/10/22 00:42:55;;;;;;;1.63;0.32;;;20.10;79.40;;;;;;4894242;28;44687;-70
2023/10/22 00:45:24;;;;;;;0.63;0.20;;;20.10;79.10;;;;;;4905771;28;44732;-70
2023/10/22 00:48:00;;;;;;;1.33;0.40;;;20.10;79.10;;;;;;4909103;28;44765;-70
2023/10/22 00:50:30;;;;;;;0.52;0.10;;;20.10;78.90;;;;;;4920573;28;45985;-70
2023/10/22 00:53:00;;;;;;;2.05;0.30;;;20.10;78.90;;;;;;4919635;28;44737;-70
2023/10/22 00:55:30;;;;;;;0.52;0.30;;;20.10;78.70;;;;;;4923999;28;44648;-70
2023/10/22 00:58:18;;;;;;;2.03;0.35;;;20.10;78.90;;;;;;4941065;28;45008;-70
2023/10/22 01:00:45;;;;;;;1.23;0.20;;;20.10;79.10;;;;;;4918718;28;45175;-70
2023/10/22 01:03:16;;;;;;;0.50;0.25;;;20.10;78.70;;;;;;4927401;28;44741;-70
2023/10/22 01:05:56;;;;;;;1.42;0.30;;;20.10;78.70;;;;;;4933696;28;44884;-69
2023/10/22 01:08:33;;;;;;;1.65;0.22;;;20.10;78.50;;;;;;4915829;28;44860;-70
2023/10/22 01:11:09;;;;;;;0.50;0.17;;;20.10;78.80;;;;;;4917270;28;46205;-70
2023/10/22 01:13:40;;;;;;;0.45;0.25;;;20.10;78.90;;;;;;4944421;28;44713;-70
2023/10/22 01:16:26;;;;;;;1.52;0.30;;;20.10;78.90;;;;;;4923513;28;44552;-70
2023/10/22 01:19:16;;;;;;;0.85;0.30;;;20.10;79.00;;;;;;4941438;28;44843;-70
2023/10/22 01:22:03;;;;;;;1.75;0.40;;;20.10;78.90;;;;;;4925390;28;47088;-70
2023/10/22 01:24:33;;;;;;;1.52;0.30;;;20.10;78.80;;;;;;4911060;28;44638;-70
2023/10/22 01:27:04;;;;;;;0.57;0.22;;;20.10;78.80;;;;;;4943064;28;44789;-70
2023/10/22 01:29:32;;;;;;;0.50;0.20;;;20.10;79.00;;;;;;4922070;28;44775;-70
2023/10/22 01:32:10;;;;;;;1.17;0.50;;;20.10;79.00;;;;;;4918302;28;46420;-70
2023/10/22 01:34:38;;;;;;;1.52;0.38;;;20.10;79.10;;;;;;4906682;28;44837;-69
2023/10/22 01:37:16;;;;;;;0.82;0.38;;;20.10;79.00;;;;;;4897566;28;44743;-69
2023/10/22 01:39:45;;;;;;;1.27;0.30;;;20.10;79.40;;;;;;4873774;28;45083;-69
2023/10/22 01:42:20;;;;;;;0.55;0.30;;;20.10;79.00;;;;;;4868565;28;46381;-69
2023/10/22 01:44:48;;;;;;;0.60;0.20;;;20.10;78.40;;;;;;4872349;28;44969;-69
2023/10/22 01:47:20;;;;;;;0.63;0.20;;;20.10;78.40;;;;;;4886668;28;44881;-69
2023/10/22 01:50:13;;;;;;;2.00;0.50;;;20.00;78.30;;;;;;4865493;28;44764;-69
2023/10/22 01:52:40;;;;;;;0.50;0.25;;;20.00;77.20;;;;;;4863338;28;46512;-69
2023/10/22 01:55:09;;;;;;;1.35;0.30;;;20.00;77.00;;;;;;4851609;28;44674;-67
2023/10/22 01:57:37;;;;;;;1.08;0.10;;;20.00;76.70;;;;;;4840454;28;44714;-66
2023/10/22 02:00:11;;;;;;;0.65;0.20;;;19.90;76.70;;;;;;4857461;28;44970;-67
2023/10/22 02:02:40;;;;;;;1.50;0.30;;;20.00;76.10;;;;;;4846249;28;46376;-67
2023/10/22 02:05:08;;;;;;;0.30;0.25;;;20.00;77.50;;;;;;4853740;28;44696;-68
2023/10/22 02:07:49;;;;;;;1.13;0.38;;;20.00;78.00;;;;;;4862307;28;45000;-68
2023/10/22 02:10:20;;;;;;;0.45;0.30;;;20.00;78.20;;;;;;4881831;28;44736;-68
2023/10/22 02:13:03;;;;;;;1.05;0.28;;;20.00;78.30;;;;;;4907421;28;46299;-69
2023/10/22 02:15:30;;;;;;;0.40;0.20;;;20.00;78.30;;;;;;4922635;28;44702;-69
2023/10/22 02:17:58;;;;;;;1.58;0.30;;;20.00;78.30;;;;;;4922607;28;44753;-69
2023/10/22 02:20:42;;;;;;;1.17;0.30;;;20.00;78.30;;;;;;4929540;28;44835;-69
2023/10/22 02:23:11;;;;;;;0.43;0.20;;;20.00;78.30;;;;;;4920988;28;46328;-67
2023/10/22 02:25:41;;;;;;;0.75;0.30;;;20.00;78.30;;;;;;4910052;28;44707;-67
2023/10/22 02:28:10;;;;;;;0.40;0.30;;;20.00;78.60;;;;;;4918051;28;44552;-67
2023/10/22 02:30:47;;;;;;;0.10;0.10;;;20.10;78.80;;;;;;4912972;28;44873;-67
2023/10/22 02:33:23;;;;;;;0.43;0.30;;;20.10;79.00;;;;;;4917646;28;46633;-69
2023/10/22 02:35:52;;;;;;;0.17;0.10;;;20.10;79.10;;;;;;4906292;28;44533;-70
2023/10/22 02:38:21;;;;;;;1.50;0.35;;;20.10;79.20;;;;;;4890166;28;44474;-70
2023/10/22 02:40:59;;;;;;;0.43;0.30;;;20.10;79.40;;;;;;4917604;28;45033;-70
2023/10/22 02:43:38;;;;;;;0.98;0.20;;;20.10;79.60;;;;;;4895519;28;46426;-70
2023/10/22 02:46:06;;;;;;;0.63;0.32;;;20.10;79.70;;;;;;4915111;28;44725;-70
2023/10/22 02:48:35;;;;;;;1.08;0.20;;;20.10;79.80;;;;;;4904183;28;44948;-70
2023/10/22 02:51:16;;;;;;;0.57;0.13;;;20.10;79.90;;;;;;4881739;28;44873;-67
2023/10/22 02:53:57;;;;;;;0.43;0.20;;;20.10;80.20;;;;;;4875462;28;46330;-63
2023/10/22 02:56:35;;;;;;;0.95;0.20;;;20.10;80.30;;;;;;4902440;28;44788;-66
2023/10/22 02:59:01;;;;;;;0.20;0.10;;;20.10;80.60;;;;;;4864060;28;44842;-67
2023/10/22 03:01:30;;;;;;;0.82;0.20;;;20.10;80.70;;;;;;4877454;28;44695;-67
2023/10/22 03:03:58;;;;;;;0.30;0.20;;;20.10;80.80;;;;;;4867659;28;46537;-68
2023/10/22 03:06:25;;;;;;;0.17;0.10;;;20.10;80.90;;;;;;4893684;28;44894;-68
2023/10/22 03:08:54;;;;;;;0.10;0.10;;;20.10;81.00;;;;;;4902580;28;44960;-68
2023/10/22 03:11:49;;;;;;;0.03;0.00;;;20.10;81.30;;;;;;4903763;28;44911;-69
2023/10/22 03:14:22;;;;;;;0.20;0.10;;;20.10;81.40;;;;;;4931780;28;46480;-69
2023/10/22 03:16:50;;;;;;;0.20;0.10;;;20.10;81.50;;;;;;4928050;28;44735;-69
2023/10/22 03:19:19;;;;;;;0.00;0.00;;;20.10;81.70;;;;;;4929197;28;44916;-69
2023/10/22 03:21:47;;;;;;;0.45;0.20;;;20.10;81.80;;;;;;4915679;28;44946;-69
2023/10/22 03:24:17;;;;;;;0.43;0.17;;;20.10;81.80;;;;;;4906978;28;46309;-70
2023/10/22 03:27:00;;;;;;;0.65;0.20;;;20.10;81.90;;;;;;4936950;28;45546;-70
2023/10/22 03:29:27;;;;;;;0.20;0.15;;;20.10;81.80;;;;;;4919097;28;44887;-70
2023/10/22 03:31:58;;;;;;;0.25;0.10;;;20.10;81.90;;;;;;4909115;28;44755;-70
2023/10/22 03:34:45;;;;;;;0.68;0.30;;;20.10;81.90;;;;;;4926849;28;45276;-70
2023/10/22 03:37:12;;;;;;;0.00;0.00;;;20.10;81.80;;;;;;4891148;28;44864;-70
2023/10/22 03:39:51;;;;;;;0.35;0.13;;;20.10;81.80;;;;;;4909148;28;44794;-70
2023/10/22 03:42:20;;;;;;;0.32;0.10;;;20.10;81.80;;;;;;4898887;28;44741;-70
2023/10/22 03:45:01;;;;;;;0.20;0.10;;;20.10;81.80;;;;;;4900737;28;46260;-70
2023/10/22 03:47:43;;;;;;;0.30;0.15;;;20.10;81.90;;;;;;4885415;28;44785;-70
2023/10/22 03:50:21;;;;;;;0.40;0.20;;;20.10;81.80;;;;;;4894694;28;44666;-70
2023/10/22 03:52:49;;;;;;;1.30;0.20;;;20.10;81.80;;;;;;4894231;28;44808;-69
2023/10/22 03:55:27;;;;;;;1.35;0.28;;;20.10;81.80;;;;;;4888847;28;46448;-70
2023/10/22 03:58:08;;;;;;;0.10;0.10;;;20.10;81.90;;;;;;4884587;28;44812;-70
2023/10/22 04:00:37;;;;;;;0.40;0.10;;;20.10;82.00;;;;;;4901772;28;44930;-70
2023/10/22 04:03:17;;;;;;;0.10;0.08;;;20.10;82.10;;;;;;4906770;28;44959;-70
2023/10/22 04:05:44;;;;;;;0.00;0.00;;;20.10;82.20;;;;;;4876888;28;46396;-70
2023/10/22 04:08:17;;;;;;;0.17;0.10;;;20.10;82.30;;;;;;4893354;28;44919;-70
2023/10/22 04:10:47;;;;;;;0.22;0.10;;;20.10;82.30;;;;;;4882708;28;44822;-70
2023/10/22 04:13:19;;;;;;;0.00;0.00;;;20.10;82.50;;;;;;4896870;28;44802;-70
2023/10/22 04:15:59;;;;;;;0.30;0.10;;;20.10;82.60;;;;;;4890705;28;46135;-70
2023/10/22 04:18:43;;;;;;;0.20;0.15;;;20.10;82.60;;;;;;4902442;28;44698;-70
2023/10/22 04:21:14;;;;;;;0.20;0.05;;;20.10;82.60;;;;;;4889905;28;44902;-70
2023/10/22 04:24:01;;;;;;;0.30;0.20;;;20.10;82.60;;;;;;4927184;28;44926;-70
2023/10/22 04:26:29;;;;;;;0.55;0.22;;;20.00;82.70;;;;;;4880487;28;46219;-70
2023/10/22 04:29:12;;;;;;;0.10;0.10;;;20.10;82.80;;;;;;4881200;28;45256;-70
2023/10/22 04:31:40;;;;;;;0.32;0.10;;;20.10;82.80;;;;;;4900383;28;44708;-70
2023/10/22 04:34:08;;;;;;;0.30;0.10;;;20.10;82.80;;;;;;4890339;28;44777;-70
2023/10/22 04:36:46;;;;;;;0.00;0.00;;;20.10;82.80;;;;;;4906593;28;46628;-70
2023/10/22 04:39:14;;;;;;;0.60;0.20;;;20.10;82.80;;;;;;4883067;28;44851;-70
2023/10/22 04:42:21;;;;;;;2.03;0.32;;;20.10;82.90;;;;;;4917886;28;44698;-70
2023/10/22 04:45:24;;;;;;;0.08;0.08;;;20.10;82.90;;;;;;4901901;28;44954;-70
2023/10/22 04:47:52;;;;;;;0.08;0.03;;;20.10;83.00;;;;;;4896563;28;46604;-70
2023/10/22 04:50:29;;;;;;;0.60;0.10;;;20.10;83.00;;;;;;4877669;28;44704;-70
2023/10/22 04:53:13;;;;;;;0.82;0.03;;;20.10;83.00;;;;;;4883545;28;45011;-70
2023/10/22 04:55:39;;;;;;;0.65;0.10;;;20.10;83.10;;;;;;4882175;28;44886;-70
2023/10/22 04:58:08;;;;;;;0.38;0.20;;;20.10;83.20;;;;;;4908665;28;46336;-70
2023/10/22 05:00:56;;;;;;;0.35;0.10;;;20.10;83.20;;;;;;4893081;28;44903;-70
2023/10/22 05:03:23;;;;;;;0.10;0.00;;;20.10;83.40;;;;;;4875281;28;44538;-70
2023/10/22 05:05:51;;;;;;;0.55;0.10;;;20.10;83.50;;;;;;4883691;28;44713;-70
2023/10/22 05:08:52;;;;;;;0.00;0.00;;;20.10;83.80;;;;;;4932089;28;46351;-70
2023/10/22 05:11:20;;;;;;;0.00;0.00;;;20.10;84.00;;;;;;4877647;28;44749;-70
2023/10/22 05:13:50;;;;;;;0.47;0.05;;;20.10;84.30;;;;;;4902543;28;44796;-70
2023/10/22 05:16:27;;;;;;;0.20;0.10;;;20.10;84.50;;;;;;4909022;28;44924;-70
2023/10/22 05:19:12;;;;;;;0.03;0.00;;;20.10;84.50;;;;;;4902793;28;46283;-70
2023/10/22 05:21:40;;;;;;;0.00;0.00;;;20.10;85.10;;;;;;4893893;28;44761;-70
2023/10/22 05:24:25;;;;;;;0.10;0.10;;;20.10;85.10;;;;;;4900932;28;44645;-70
2023/10/22 05:26:53;;;;;;;0.30;0.10;;;20.10;85.20;;;;;;4921599;28;44747;-70
2023/10/22 05:29:22;;;;;;;0.00;0.00;;;20.10;85.20;;;;;;4920676;28;46117;-70
2023/10/22 05:31:53;;;;;;;0.10;0.10;;;20.10;85.10;;;;;;4893984;28;44857;-70
2023/10/22 05:34:20;;;;;;;0.10;0.00;;;20.10;85.10;;;;;;4895882;28;44690;-65
2023/10/22 05:36:47;;;;;;;0.43;0.13;;;20.00;84.90;;;;;;4852009;28;45165;-66
2023/10/22 05:42:07;;;;;;;0.35;0.10;;;20.10;84.70;;;;;;4862922;28;44764;-67
2023/10/22 05:44:43;;;;;;;0.10;0.05;;;20.10;84.60;;;;;;4896109;28;44787;-68
2023/10/22 05:47:12;;;;;;;0.38;0.10;;;20.00;84.30;;;;;;4866526;28;44866;-68
2023/10/22 05:49:42;;;;;;;0.22;0.10;;;20.00;84.20;;;;;;4903304;28;46236;-68
2023/10/22 05:52:11;;;;;;;0.40;0.13;;;20.00;84.20;;;;;;4883877;28;44790;-69
2023/10/22 05:54:47;;;;;;;0.00;0.00;;;20.00;84.10;;;;;;4855117;28;44741;-69
2023/10/22 05:57:28;;;;;;;0.10;0.10;;;20.10;84.00;;;;;;4908282;28;45051;-69
2023/10/22 05:59:57;;;;;;;0.57;0.10;;;20.00;83.80;;;;;;4902145;28;46277;-69
2023/10/22 06:03:11;;;;;;;0.32;0.10;;;20.00;83.80;;;;;;4921545;28;44709;-69
2023/10/22 06:09:12;;;;;;;0.22;0.17;;;20.00;83.60;;;;;;4924575;28;44564;-69
2023/10/22 06:11:55;;;;;;;0.88;0.10;;;20.00;83.40;;;;;;4947665;28;46364;-69
2023/10/22 06:14:24;;;;;;;0.10;0.10;;;20.00;83.30;;;;;;4948648;28;44866;-69
2023/10/22 06:17:00;;;;;;;0.20;0.10;;;20.00;83.30;;;;;;4960995;28;44887;-69
2023/10/22 06:19:43;;;;;;;0.10;0.10;;;20.00;83.20;;;;;;4973163;28;44795;-69
2023/10/22 06:22:13;;;;;;;0.13;0.13;;;20.00;83.20;;;;;;4978627;28;46552;-69
2023/10/22 06:25:00;;;;;;;0.10;0.10;;;20.00;83.20;;;;;;4977013;28;44642;-69
2023/10/22 06:27:59;;;;;;;0.10;0.00;;;20.00;83.10;;;;;;4992146;28;44636;-69
2023/10/22 06:30:29;;;;;;;0.10;0.10;;;20.00;83.00;;;;;;4881844;28;44846;-68
2023/10/22 06:33:13;;;;;;;1.15;0.20;;;20.00;83.00;;;;;;4881541;28;46583;-67
2023/10/22 06:35:49;;;;;;;0.63;0.13;;;20.00;82.90;;;;;;4879518;28;44839;-68
2023/10/22 06:38:17;;;;;;;0.38;0.10;;;20.00;82.90;;;;;;4874558;28;44647;-65
2023/10/22 06:40:44;;;;;;;1.27;0.10;;;20.00;82.90;;;;;;4878787;28;44766;-65
2023/10/22 06:43:11;;;;;;;0.57;0.17;;;20.00;82.90;;;;;;4869108;28;46275;-65
2023/10/22 06:45:38;;;;;;;0.10;0.10;;;20.00;82.70;;;;;;4884189;28;44931;-65
2023/10/22 06:48:07;;;;;;;1.55;0.20;;;20.00;82.60;;;;;;4908855;28;44694;-65
2023/10/22 06:50:35;;;;;;;0.20;0.10;;;20.00;82.60;;;;;;4870869;28;44851;-65
2023/10/22 06:53:05;;;;;;;0.10;0.10;;;20.00;82.60;;;;;;4871104;28;46340;-65
2023/10/22 06:55:37;;;;;;;0.10;0.10;;;20.00;82.50;;;;;;4898020;28;44485;-66
2023/10/22 07:01:30;;;;;;;1.08;0.30;;;20.00;82.50;;;;;;4847365;28;45184;-64
2023/10/22 07:03:57;;;;;;;0.20;0.10;;;20.00;82.50;;;;;;4883100;28;46628;-65
2023/10/22 07:06:26;;;;;;;0.50;0.13;;;20.00;82.60;;;;;;4867342;28;44955;-67
2023/10/22 07:09:32;;;;;;;0.10;0.10;;;20.00;82.50;;;;;;4875831;28;44739;-67
2023/10/22 07:12:02;;;;;;;0.15;0.00;;;20.00;82.50;;;;;;4868155;28;44780;-68
2023/10/22 07:14:29;;;;;;;0.45;0.10;;;20.00;82.60;;;;;;4867465;28;46664;-68
2023/10/22 07:16:56;;;;;;;0.28;0.10;;;20.00;82.70;;;;;;4868988;28;44810;-68
2023/10/22 07:19:26;;;;;;;0.30;0.10;;;20.00;82.80;;;;;;4883828;28;44642;-68
2023/10/22 07:22:14;;;;;;;0.98;0.20;;;20.00;82.70;;;;;;4892796;28;44759;-68
2023/10/22 07:28:15;;;;;;;1.27;0.10;;;20.00;83.00;;;;;;4835544;28;44993;-68
2023/10/22 07:31:17;;;;;;;0.73;0.03;;;20.00;83.20;;;;;;4870685;28;45274;-68
2023/10/22 07:37:35;;;;;;;0.55;0.13;;;20.00;83.30;;;;;;4857153;28;45697;-64
2023/10/22 07:40:09;;;;;;;0.73;0.20;;;20.00;83.50;;;;;;4838954;28;45363;-64
2023/10/22 07:43:19;;;;;;;0.32;0.10;;;20.10;83.50;;;;;;4834325;28;44994;-66
2023/10/22 07:45:53;;;;;;;0.28;0.10;;;20.10;83.20;;;;;;4835197;28;45256;-67
2023/10/22 07:48:49;;;;;;;0.10;0.10;;;20.10;83.20;;;;;;4833607;28;46496;-67
2023/10/22 07:51:21;;;;;;;0.10;0.10;;;20.10;83.00;;;;;;4874995;28;45255;-67
2023/10/22 07:57:38;;;;;;;0.63;0.15;;;20.10;83.00;;;;;;4911202;28;44721;-68
2023/10/22 08:00:47;;;;;;;0.00;0.00;;;20.00;83.00;;;;;;4885544;28;46430;-68
2023/10/22 08:03:22;;;;;;;1.15;0.13;;;20.10;83.00;;;;;;4875809;28;45108;-68
2023/10/22 08:05:52;;;;;;;0.10;0.00;;;20.10;82.90;;;;;;4868461;28;45096;-68
2023/10/22 08:11:16;;;;;;;1.02;0.20;;;20.10;82.90;;;;;;4897672;28;45162;-68
2023/10/22 08:13:57;;;;;;;0.20;0.08;;;20.10;82.80;;;;;;4922714;28;45134;-68
2023/10/22 08:17:09;;;;;;;0.10;0.10;;;20.10;82.80;;;;;;4935189;28;45017;-68
2023/10/22 08:19:47;;;;;;;0.10;0.10;;;20.10;83.00;;;;;;4982958;28;45111;-68
2023/10/22 08:22:27;;;;;;;0.55;0.10;;;20.10;82.90;;;;;;4987135;28;46344;-68
2023/10/22 08:24:55;;;;;;;0.40;0.10;;;20.10;82.30;;;;;;4975992;28;45215;-68
2023/10/22 08:27:22;;;;;;;0.43;0.20;;;20.10;81.70;;;;;;4975486;28;45227;-69
2023/10/22 08:29:59;;;;;;;0.20;0.10;;;20.00;80.80;;;;;;4906256;28;44880;-68
2023/10/22 08:35:19;;;;;;;0.38;0.20;;;20.00;79.00;;;;;;4960064;28;45131;-68
2023/10/22 08:37:54;;;;;;;1.48;0.20;;;19.90;78.20;;;;;;4998122;28;45210;-69
2023/10/22 08:40:23;;;;;;;0.47;0.20;;;20.00;78.80;;;;;;4954820;28;45321;-68
2023/10/22 08:43:04;;;;;;;0.10;0.10;;;19.90;80.20;;;;;;4988317;28;46926;-68
2023/10/22 08:45:36;;;;;;;0.75;0.20;;;20.00;81.30;;;;;;4984338;28;46124;-66
2023/10/22 08:48:05;;;;;;;2.05;0.20;;;20.00;81.80;;;;;;4841489;28;44847;-65
2023/10/22 08:53:24;;;;;;;0.17;0.10;;;20.00;82.00;;;;;;4797308;28;45311;-67
2023/10/22 08:55:52;;;;;;;0.15;0.10;;;20.00;82.50;;;;;;4904702;28;45454;-64
2023/10/22 08:58:37;;;;;;;2.03;0.30;;;20.10;82.70;;;;;;4824292;28;45303;-65
2023/10/22 09:01:06;;;;;;;0.40;0.10;;;20.10;82.60;;;;;;4788810;28;45159;-66
2023/10/22 09:03:36;;;;;;;0.43;0.22;;;20.10;82.60;;;;;;4819715;28;47469;-67
2023/10/22 09:06:06;;;;;;;0.10;0.10;;;20.10;82.60;;;;;;4822008;28;45306;-64
2023/10/22 09:09:00;;;;;;;72.40;4.10;;;20.10;82.70;;;;;;4864699;28;45334;-61
2023/10/22 09:11:27;;;;;;;22.00;2.88;;;20.10;82.90;;;;;;4811288;28;45340;-62
2023/10/22 09:13:54;;;;;;;14.30;1.40;;;20.20;83.40;;;;;;4812410;28;45703;-61
2023/10/22 09:16:31;;;;;;;4.90;0.88;;;20.20;83.60;;;;;;4804208;28;45022;-62
2023/10/22 09:19:12;;;;;;;4.07;0.75;;;20.20;84.00;;;;;;4790177;28;44936;-64
2023/10/22 09:21:42;;;;;;;6.47;0.60;;;20.20;83.90;;;;;;4881980;28;45243;-65
2023/10/22 09:24:26;;;;;;;0.25;0.22;;;20.20;84.10;;;;;;4931417;28;46252;-65
2023/10/22 09:27:19;;;;;;;1.27;0.40;;;20.20;84.20;;;;;;4916722;28;45478;-65
2023/10/22 09:30:13;;;;;;;0.80;0.20;;;20.20;84.40;;;;;;4898456;28;45253;-65
2023/10/22 09:32:54;;;;;;;2.88;0.20;;;20.20;84.50;;;;;;4926173;28;45367;-65
2023/10/22 09:35:22;;;;;;;0.32;0.22;;;20.20;84.60;;;;;;4812035;28;46379;-61
2023/10/22 09:37:50;;;;;;;0.95;0.20;;;20.20;84.70;;;;;;4799335;28;45093;-62
2023/10/22 09:40:47;;;;;;;2.28;0.20;;;20.20;85.00;;;;;;4801346;28;45222;-63
2023/10/22 09:43:15;;;;;;;3.90;0.25;;;20.20;85.00;;;;;;4823161;28;45124;-64
2023/10/22 09:46:00;;;;;;;0.50;0.28;;;20.20;84.90;;;;;;4845709;28;46306;-64
2023/10/22 09:48:40;;;;;;;1.38;0.30;;;20.20;84.90;;;;;;4846761;28;45354;-64
2023/10/22 09:51:24;;;;;;;1.58;0.25;;;20.20;85.00;;;;;;4874861;28;45332;-64
2023/10/22 09:54:05;;;;;;;2.38;0.40;;;20.20;85.10;;;;;;4866666;28;45210;-64
2023/10/22 09:56:57;;;;;;;1.10;0.20;;;20.20;85.60;;;;;;4884699;28;47286;-64
2023/10/22 09:59:47;;;;;;;1.70;0.30;;;20.20;85.20;;;;;;4907227;28;45205;-64
2023/10/22 10:02:34;;;;;;;0.32;0.20;;;20.20;85.30;;;;;;4923941;28;45369;-64
2023/10/22 10:05:03;;;;;;;0.50;0.30;;;20.20;85.40;;;;;;4930507;28;45722;-65
2023/10/22 10:07:31;;;;;;;0.93;0.30;;;20.20;85.20;;;;;;4926797;28;45953;-65
2023/10/22 10:10:23;;;;;;;1.63;0.20;;;20.20;85.30;;;;;;4910372;28;45259;-65
2023/10/22 10:13:01;;;;;;;1.25;0.25;;;20.20;85.40;;;;;;4901587;28;45208;-65
2023/10/22 10:16:01;;;;;;;0.55;0.20;;;20.20;85.40;;;;;;4834402;28;45047;-63
2023/10/22 10:19:14;;;;;;;0.50;0.30;;;20.20;85.30;;;;;;4789481;28;46594;-63
2023/10/22 10:21:45;;;;;;;1.02;0.38;;;20.20;85.00;;;;;;4827025;28;45232;-63
2023/10/22 10:24:29;;;;;;;0.30;0.20;;;20.20;84.60;;;;;;4827215;28;45175;-64
2023/10/22 10:27:25;;;;;;;0.52;0.20;;;20.20;84.30;;;;;;4868541;28;45020;-64
2023/10/22 10:30:17;;;;;;;0.47;0.10;;;20.20;84.00;;;;;;4891794;28;47396;-64
2023/10/22 10:32:46;;;;;;;0.70;0.25;;;20.20;84.00;;;;;;4896525;28;45401;-64
2023/10/22 10:35:55;;;;;;;0.22;0.20;;;20.10;83.80;;;;;;4899172;28;45259;-61
2023/10/22 10:38:40;;;;;;;1.17;0.20;;;20.10;83.50;;;;;;4778102;28;45288;-62
2023/10/22 10:41:37;;;;;;;0.20;0.10;;;20.10;83.20;;;;;;4796858;28;46402;-62
2023/10/22 10:44:09;;;;;;;0.40;0.10;;;20.10;82.40;;;;;;4818796;28;44909;-61
2023/10/22 10:47:19;;;;;;;0.25;0.17;;;20.10;82.90;;;;;;4815574;28;45151;-61
2023/10/22 10:50:10;;;;;;;0.50;0.22;;;20.10;83.30;;;;;;4840197;28;45179;-62
2023/10/22 10:52:59;;;;;;;0.10;0.10;;;20.10;83.30;;;;;;4821478;28;46735;-63
2023/10/22 10:58:50;;;;;;;0.32;0.10;;;20.20;83.80;;;;;;4888390;28;45176;-63
2023/10/22 11:02:04;;;;;;;0.30;0.20;;;20.10;83.90;;;;;;4918710;28;45086;-63
2023/10/22 11:04:34;;;;;;;0.47;0.20;;;20.10;83.90;;;;;;4947677;28;46286;-64
2023/10/22 11:07:23;;;;;;;0.93;0.30;;;20.10;84.00;;;;;;4975665;28;45134;-64
2023/10/22 11:10:10;;;;;;;0.25;0.20;;;20.10;84.20;;;;;;4981079;28;45449;-64
2023/10/22 11:13:04;;;;;;;0.57;0.20;;;20.10;84.40;;;;;;4971718;28;45124;-64
2023/10/22 11:16:06;;;;;;;0.57;0.20;;;20.20;84.40;;;;;;4973405;28;46356;-64
2023/10/22 11:18:54;;;;;;;0.20;0.15;;;20.10;84.50;;;;;;4967719;28;45232;-64
2023/10/22 11:21:23;;;;;;;0.90;0.13;;;20.20;84.60;;;;;;4909205;28;45079;-64
2023/10/22 11:23:51;;;;;;;0.10;0.10;;;20.20;84.70;;;;;;4864121;28;45450;-64
2023/10/22 11:26:18;;;;;;;0.57;0.20;;;20.20;84.70;;;;;;4859503;28;46376;-64
2023/10/22 11:29:25;;;;;;;0.10;0.10;;;20.20;84.70;;;;;;4849466;28;44958;-64
2023/10/22 11:32:05;;;;;;;0.80;0.30;;;20.20;84.80;;;;;;4812454;28;45245;-64
2023/10/22 11:37:15;;;;;;;1.02;0.22;;;20.20;84.80;;;;;;4780143;28;45523;-61
2023/10/22 11:39:42;;;;;;;0.35;0.20;;;20.20;84.80;;;;;;4821695;28;45307;-62
2023/10/22 11:45:13;;;;;;;0.17;0.10;;;20.20;84.90;;;;;;4837377;28;45424;-63
2023/10/22 11:47:40;;;;;;;0.40;0.20;;;20.20;85.00;;;;;;4859771;28;46819;-63
2023/10/22 11:50:37;;;;;;;0.28;0.20;;;20.20;85.10;;;;;;4880161;28;45376;-63
2023/10/22 11:53:15;;;;;;;0.55;0.10;;;20.20;85.20;;;;;;4851733;28;44984;-63
2023/10/22 11:56:04;;;;;;;0.75;0.10;;;20.20;85.30;;;;;;4861559;28;45327;-64
2023/10/22 11:58:31;;;;;;;0.22;0.10;;;20.20;85.40;;;;;;4869478;28;46294;-64
2023/10/22 12:01:25;;;;;;;1.65;0.20;;;20.20;85.40;;;;;;4860261;28;45306;-64
2023/10/22 12:03:52;;;;;;;0.30;0.20;;;20.20;85.40;;;;;;4867316;28;44822;-64
2023/10/22 12:06:43;;;;;;;0.35;0.20;;;20.10;85.50;;;;;;4865892;28;45285;-64
2023/10/22 12:12:13;;;;;;;0.40;0.10;;;20.20;85.90;;;;;;4819469;28;45383;-64
2023/10/22 12:14:42;;;;;;;0.47;0.10;;;20.20;86.10;;;;;;4833476;28;45238;-64
2023/10/22 12:17:13;;;;;;;0.35;0.10;;;20.20;85.90;;;;;;4845355;28;45428;-64
2023/10/22 12:19:44;;;;;;;0.17;0.10;;;20.20;86.40;;;;;;4813191;28;46087;-64
2023/10/22 12:22:21;;;;;;;0.35;0.10;;;20.20;86.10;;;;;;4829678;28;45172;-64
2023/10/22 12:25:26;;;;;;;0.20;0.05;;;20.20;86.20;;;;;;4845887;28;45424;-63
2023/10/22 12:28:08;;;;;;;0.57;0.10;;;20.20;86.20;;;;;;4824995;28;45175;-64
2023/10/22 12:30:54;;;;;;;0.13;0.13;;;20.20;86.20;;;;;;4818636;28;46397;-64
2023/10/22 12:33:26;;;;;;;0.20;0.10;;;20.20;86.10;;;;;;4799137;28;45084;-64
2023/10/22 12:36:13;;;;;;;0.22;0.10;;;20.20;85.90;;;;;;4819932;28;45214;-64
2023/10/22 12:38:53;;;;;;;0.10;0.10;;;20.20;86.30;;;;;;4778109;28;45411;-64
2023/10/22 12:41:29;;;;;;;0.52;0.10;;;20.20;86.20;;;;;;4803163;28;45441;-64
2023/10/22 12:44:24;;;;;;;0.10;0.08;;;20.20;86.30;;;;;;4810440;28;45104;-63
2023/10/22 12:46:51;;;;;;;0.90;0.20;;;20.20;86.20;;;;;;4800415;28;45155;-64
2023/10/22 12:49:44;;;;;;;1.17;0.13;;;20.20;86.40;;;;;;4816497;28;44702;-63
2023/10/22 12:52:25;;;;;;;0.13;0.13;;;20.20;86.60;;;;;;4839840;28;46198;-64
2023/10/22 12:55:00;;;;;;;0.10;0.10;;;20.20;86.90;;;;;;4812537;28;45316;-64
2023/10/22 12:57:48;;;;;;;0.30;0.20;;;20.20;87.10;;;;;;4814848;28;45425;-64
2023/10/22 13:01:05;;;;;;;0.20;0.10;;;20.20;87.10;;;;;;4826352;28;45346;-64
2023/10/22 13:03:32;;;;;;;0.25;0.15;;;20.20;87.30;;;;;;4827201;28;45660;-64
2023/10/22 13:06:02;;;;;;;0.20;0.05;;;20.20;87.40;;;;;;4807610;28;45502;-63
2023/10/22 13:08:38;;;;;;;0.20;0.15;;;20.20;87.30;;;;;;4818379;28;45541;-63
2023/10/22 13:11:31;;;;;;;0.10;0.10;;;20.20;87.30;;;;;;4835724;28;45109;-63
2023/10/22 13:14:20;;;;;;;0.10;0.10;;;20.20;87.30;;;;;;4814585;28;45779;-63
2023/10/22 13:17:00;;;;;;;0.47;0.20;;;20.20;87.50;;;;;;4828690;28;45171;-63
2023/10/22 13:19:55;;;;;;;0.22;0.20;;;20.20;87.60;;;;;;4811391;28;45291;-63
2023/10/22 13:22:44;;;;;;;0.20;0.10;;;20.20;87.40;;;;;;4832633;28;45308;-63
2023/10/22 13:25:51;;;;;;;0.40;0.10;;;20.20;87.50;;;;;;4827192;28;46367;-63
2023/10/22 13:28:30;;;;;;;0.38;0.10;;;20.20;87.80;;;;;;4832465;28;45831;-63
2023/10/22 13:30:58;;;;;;;0.40;0.10;;;20.20;87.30;;;;;;4802109;28;45363;-64
2023/10/22 13:33:40;;;;;;;0.10;0.10;;;20.20;87.70;;;;;;4824300;28;45220;-64
2023/10/22 13:36:25;;;;;;;0.10;0.10;;;20.20;87.60;;;;;;4796228;28;46412;-64
2023/10/22 13:38:52;;;;;;;0.08;0.05;;;20.20;87.80;;;;;;4803148;28;45482;-64
2023/10/22 13:41:21;;;;;;;0.47;0.08;;;20.20;87.80;;;;;;4801675;28;45382;-64
2023/10/22 13:44:27;;;;;;;0.20;0.20;;;20.20;87.50;;;;;;4822901;28;45446;-64
2023/10/22 13:50:39;;;;;;;0.10;0.10;;;20.20;87.90;;;;;;4808723;28;45217;-64
2023/10/22 13:53:23;;;;;;;0.10;0.10;;;20.20;87.50;;;;;;4804634;28;45600;-64
2023/10/22 13:56:09;;;;;;;0.10;0.10;;;20.20;87.50;;;;;;4782061;28;44783;-64
2023/10/22 13:58:39;;;;;;;0.10;0.10;;;20.20;87.60;;;;;;4795654;28;45263;-64
2023/10/22 14:01:23;;;;;;;0.45;0.10;;;20.20;87.80;;;;;;4816751;28;45317;-64
2023/10/22 14:04:12;;;;;;;0.17;0.10;;;20.20;88.10;;;;;;4800246;28;45152;-64
2023/10/22 14:06:40;;;;;;;0.20;0.00;;;20.20;88.00;;;;;;4814705;28;45917;-64
2023/10/22 14:09:35;;;;;;;0.10;0.10;;;20.20;88.30;;;;;;4827209;28;46299;-64
2023/10/22 14:12:23;;;;;;;0.00;0.00;;;20.20;88.20;;;;;;4819395;28;45318;-64
2023/10/22 14:15:02;;;;;;;0.17;0.10;;;20.20;88.30;;;;;;4780971;28;45337;-64
2023/10/22 14:17:29;;;;;;;0.00;0.00;;;20.20;88.30;;;;;;4786118;28;45133;-64
2023/10/22 14:19:58;;;;;;;0.40;0.10;;;20.20;88.40;;;;;;4791962;28;47418;-64
2023/10/22 14:22:49;;;;;;;0.17;0.10;;;20.20;88.40;;;;;;4809094;28;45224;-64
2023/10/22 14:25:20;;;;;;;0.10;0.10;;;20.20;88.50;;;;;;4776322;28;45278;-64